createdAt,value
2023-05-09T00:00:55.387Z,43.16
2023-05-09T00:05:07.886Z,43.41
2023-05-09T00:08:11.483Z,43.40
2023-05-09T00:11:13.693Z,43.38
2023-05-09T00:14:16.198Z,43.44
2023-05-09T00:17:18.741Z,43.46
2023-05-09T00:20:21.243Z,43.54
2023-05-09T00:23:24.204Z,43.59
2023-05-09T00:26:26.813Z,43.63
2023-05-09T00:29:28.871Z,43.75
2023-05-09T00:32:31.407Z,43.86
2023-05-09T00:35:33.746Z,44.00
2023-05-09T00:38:36.248Z,44.20
2023-05-09T00:41:39.756Z,44.30
2023-05-09T00:44:41.978Z,44.27
2023-05-09T00:54:09.343Z,44.64
2023-05-09T00:57:11.734Z,44.63
2023-05-09T01:00:14.644Z,44.66
2023-05-09T01:03:17.273Z,44.92
2023-05-09T01:06:41.987Z,44.82
2023-05-09T01:09:51.024Z,45.00
2023-05-09T01:13:21.843Z,45.02
2023-05-09T01:17:09.243Z,45.09
2023-05-09T01:20:39.336Z,45.04
2023-05-09T01:23:44.695Z,44.91
2023-05-09T01:27:04.558Z,44.88
2023-05-09T01:30:10.155Z,44.89
2023-05-09T01:33:17.490Z,44.97
2023-05-09T01:36:21.937Z,45.04
2023-05-09T01:39:25.761Z,44.96
2023-05-09T01:42:34.007Z,44.96
2023-05-09T01:45:39.218Z,44.95
2023-05-09T01:48:44.917Z,45.11
2023-05-09T01:51:48.740Z,45.20
2023-05-09T01:54:51.742Z,45.35
2023-05-09T01:57:55.075Z,45.34
2023-05-09T02:05:04.814Z,45.56
2023-05-09T02:08:08.738Z,45.64
2023-05-09T02:11:11.577Z,45.84
2023-05-09T02:14:14.404Z,45.92
2023-05-09T02:17:17.875Z,46.07
2023-05-09T02:20:21.261Z,46.14
2023-05-09T02:23:23.711Z,46.30
2023-05-09T02:26:27.069Z,46.39
2023-05-09T02:29:40.911Z,46.48
2023-05-09T02:32:46.101Z,46.53
2023-05-09T02:35:49.422Z,46.62
2023-05-09T02:38:51.924Z,46.70
2023-05-09T02:41:54.982Z,46.75
2023-05-09T02:44:57.126Z,46.75
2023-05-09T02:48:00.089Z,46.71
2023-05-09T02:51:03.095Z,46.61
2023-05-09T02:54:06.678Z,46.63
2023-05-09T02:57:08.858Z,46.67
2023-05-09T03:00:12.214Z,46.63
2023-05-09T03:03:15.399Z,46.56
2023-05-09T03:06:18.028Z,46.59
2023-05-09T03:09:20.430Z,46.43
2023-05-09T03:12:22.762Z,46.41
2023-05-09T03:15:26.778Z,46.35
2023-05-09T03:18:29.708Z,46.34
2023-05-09T03:21:32.505Z,46.35
2023-05-09T03:24:34.967Z,46.44
2023-05-09T03:27:37.746Z,46.44
2023-05-09T03:30:41.047Z,46.42
2023-05-09T03:33:45.496Z,46.42
2023-05-09T03:36:47.891Z,46.32
2023-05-09T03:39:50.440Z,46.20
2023-05-09T03:42:52.809Z,46.21
2023-05-09T03:45:55.702Z,46.02
2023-05-09T03:48:58.849Z,46.05
2023-05-09T03:52:01.115Z,46.18
2023-05-09T03:55:04.709Z,46.26
2023-05-09T03:58:08.841Z,46.36
2023-05-09T04:05:05.701Z,46.57
2023-05-09T04:08:09.055Z,46.50
2023-05-09T04:11:11.443Z,46.28
2023-05-09T04:14:16.997Z,45.90
2023-05-09T04:17:19.326Z,45.78
2023-05-09T04:20:22.033Z,45.66
2023-05-09T04:23:24.522Z,45.16
2023-05-09T04:26:27.695Z,45.09
2023-05-09T04:29:31.194Z,44.91
2023-05-09T04:32:36.360Z,44.41
2023-05-09T04:35:39.425Z,44.37
2023-05-09T04:38:41.902Z,44.23
2023-05-09T04:41:48.142Z,44.04
2023-05-09T04:44:51.954Z,43.51
2023-05-09T04:47:56.627Z,43.34
2023-05-09T04:50:58.817Z,43.26
2023-05-09T04:59:53.404Z,42.81
2023-05-09T05:02:56.102Z,42.27
2023-05-09T05:06:00.101Z,42.10
2023-05-09T05:09:02.881Z,42.21
2023-05-09T05:12:09.327Z,41.73
2023-05-09T05:15:13.581Z,41.38
2023-05-09T05:18:17.194Z,41.19
2023-05-09T05:21:19.575Z,41.05
2023-05-09T05:24:21.919Z,40.84
2023-05-09T05:27:24.528Z,40.63
2023-05-09T05:30:26.969Z,40.28
2023-05-09T05:33:29.203Z,40.23
2023-05-09T05:36:32.764Z,40.24
2023-05-09T05:39:35.334Z,40.42
2023-05-09T05:42:38.143Z,40.35
2023-05-09T05:45:41.059Z,40.03
2023-05-09T05:48:44.446Z,40.10
2023-05-09T05:51:46.755Z,39.64
2023-05-09T05:54:50.076Z,39.28
2023-05-09T05:57:52.589Z,39.39
2023-05-09T06:00:55.472Z,39.39
2023-05-09T06:05:04.316Z,39.25
2023-05-09T06:08:07.041Z,39.32
2023-05-09T06:11:09.751Z,39.53
2023-05-09T06:14:11.939Z,39.35
2023-05-09T06:17:14.661Z,39.18
2023-05-09T06:20:17.005Z,38.65
2023-05-09T06:23:22.620Z,38.32
2023-05-09T10:05:08.770Z,23.80
2023-05-09T10:08:11.494Z,23.55
2023-05-09T10:11:14.320Z,23.05
2023-05-09T10:14:18.910Z,22.87
2023-05-09T10:17:23.301Z,23.27
2023-05-09T10:20:25.942Z,23.63
2023-05-09T10:23:31.234Z,23.36
2023-05-09T10:26:41.908Z,22.97
2023-05-09T10:29:53.122Z,22.84
2023-05-09T10:32:59.757Z,22.77
2023-05-09T10:36:03.829Z,22.79
2023-05-09T10:39:06.926Z,22.58
2023-05-09T10:42:09.920Z,22.45
2023-05-09T10:45:14.026Z,22.27
2023-05-09T10:48:18.765Z,22.12
2023-05-09T10:51:21.855Z,22.61
2023-05-09T10:54:33.719Z,23.02
2023-05-09T10:57:39.710Z,23.54
2023-05-09T11:00:43.615Z,23.58
2023-05-09T11:04:00.345Z,23.41
2023-05-09T11:07:02.609Z,23.27
2023-05-09T11:10:10.020Z,22.96
2023-05-09T11:13:12.232Z,22.83
2023-05-09T11:16:14.457Z,22.77
2023-05-09T11:19:43.335Z,22.63
2023-05-09T11:22:47.361Z,22.30
2023-05-09T11:25:49.972Z,22.17
2023-05-09T11:28:54.274Z,22.12
2023-05-09T11:32:07.993Z,22.03
2023-05-09T11:35:21.848Z,22.09
2023-05-09T11:38:24.242Z,21.89
2023-05-09T11:41:27.636Z,21.87
2023-05-09T11:44:33.770Z,22.04
2023-05-09T11:47:38.183Z,22.35
2023-05-09T11:50:42.266Z,21.91
2023-05-09T11:53:47.372Z,21.51
2023-05-09T12:10:23.475Z,21.24
2023-05-09T12:13:25.963Z,21.07
2023-05-09T12:16:28.240Z,21.25
2023-05-09T12:19:30.453Z,21.38
2023-05-09T12:22:33.500Z,21.54
2023-05-09T12:25:35.682Z,21.60
2023-05-09T12:28:38.420Z,21.42
2023-05-09T12:31:42.648Z,20.87
2023-05-09T12:34:52.679Z,20.41
2023-05-09T12:37:57.778Z,20.22
2023-05-09T12:41:04.459Z,20.33
2023-05-09T12:44:08.136Z,20.56
2023-05-09T12:47:13.027Z,20.83
2023-05-09T12:50:15.375Z,21.02
2023-05-09T12:53:28.200Z,21.51
2023-05-09T12:56:36.612Z,21.73
2023-05-09T12:59:45.193Z,22.05
2023-05-09T13:02:51.155Z,21.95
2023-05-09T13:06:01.786Z,21.97
2023-05-09T13:09:09.784Z,22.27
2023-05-09T13:12:11.943Z,22.41
2023-05-09T13:15:15.677Z,22.42
2023-05-09T13:18:18.760Z,22.14
2023-05-09T13:21:21.375Z,21.86
2023-05-09T13:24:23.512Z,21.52
2023-05-09T13:27:26.672Z,21.25
2023-05-09T13:30:31.066Z,21.79
2023-05-09T13:33:34.629Z,21.92
2023-05-09T13:36:37.607Z,22.09
2023-05-09T13:39:40.140Z,22.37
2023-05-09T13:42:42.635Z,22.66
2023-05-09T13:45:45.410Z,22.73
2023-05-09T13:48:48.258Z,22.57
2023-05-09T13:51:51.041Z,22.49
2023-05-09T13:54:53.247Z,22.60
2023-05-09T13:57:55.371Z,22.89
2023-05-09T14:05:04.731Z,23.27
2023-05-09T14:08:07.639Z,23.08
2023-05-09T14:11:09.908Z,23.10
2023-05-09T14:14:12.362Z,23.13
2023-05-09T14:17:16.242Z,23.28
2023-05-09T14:20:18.592Z,23.33
2023-05-09T14:23:20.850Z,23.78
2023-05-09T14:26:23.510Z,23.85
2023-05-09T14:29:25.786Z,23.59
2023-05-09T14:32:28.030Z,23.49
2023-05-09T14:35:33.135Z,22.94
2023-05-09T14:38:35.676Z,22.23
2023-05-09T14:41:38.170Z,21.60
2023-05-09T14:44:41.867Z,20.62
2023-05-09T14:47:44.585Z,19.77
2023-05-09T14:50:47.116Z,19.18
2023-05-09T14:53:49.255Z,18.31
2023-05-09T14:56:51.363Z,18.13
2023-05-09T14:59:53.504Z,18.01
2023-05-09T15:02:57.075Z,18.58
2023-05-09T15:05:59.435Z,19.39
2023-05-09T15:12:51.764Z,20.56
2023-05-09T15:15:54.056Z,20.93
2023-05-09T15:18:56.828Z,21.47
2023-05-09T15:22:00.262Z,21.89
2023-05-09T15:25:05.419Z,22.18
2023-05-09T15:28:08.516Z,22.64
2023-05-09T15:31:10.699Z,23.01
2023-05-09T15:34:13.125Z,23.40
2023-05-09T15:37:15.304Z,23.41
2023-05-09T15:40:18.515Z,23.17
2023-05-09T15:43:21.204Z,22.61
2023-05-09T15:46:24.048Z,22.18
2023-05-09T15:49:26.423Z,21.80
2023-05-09T15:52:28.723Z,21.76
2023-05-09T15:55:31.884Z,22.00
2023-05-09T15:58:34.904Z,21.92
2023-05-09T16:01:37.099Z,21.77
2023-05-09T16:04:39.220Z,21.87
2023-05-09T16:07:44.208Z,21.91
2023-05-09T16:14:55.059Z,22.73
2023-05-09T16:17:58.156Z,22.91
2023-05-09T16:21:01.150Z,23.11
2023-05-09T16:24:04.413Z,25.61
2023-05-09T16:27:06.561Z,24.50
2023-05-09T16:30:10.253Z,24.51
2023-05-09T16:33:12.876Z,24.82
2023-05-09T16:36:15.164Z,25.19
2023-05-09T16:39:17.484Z,25.34
2023-05-09T16:42:19.433Z,25.42
2023-05-09T16:45:21.652Z,25.75
2023-05-09T16:48:23.782Z,25.98
2023-05-09T16:51:25.980Z,26.14
2023-05-09T16:54:31.063Z,26.48
2023-05-09T16:57:33.540Z,26.74
2023-05-09T17:00:36.032Z,27.07
2023-05-09T17:03:38.600Z,27.35
2023-05-09T17:06:40.774Z,27.59
2023-05-09T17:09:43.077Z,27.83
2023-05-09T17:12:45.327Z,28.18
2023-05-09T17:15:47.219Z,28.44
2023-05-09T17:18:49.119Z,28.69
2023-05-09T17:21:52.081Z,28.82
2023-05-09T17:24:54.507Z,28.98
2023-05-09T17:27:56.565Z,29.19
2023-05-09T17:30:58.848Z,29.41
2023-05-09T17:34:01.539Z,29.70
2023-05-09T17:37:05.333Z,30.11
2023-05-09T17:40:08.298Z,30.46
2023-05-09T17:43:12.633Z,30.57
2023-05-09T17:46:14.679Z,30.82
2023-05-09T17:49:17.307Z,31.05
2023-05-09T17:52:19.636Z,31.30
2023-05-09T17:55:22.138Z,31.52
2023-05-09T17:58:28.139Z,31.56
2023-05-09T18:05:09.699Z,31.90
2023-05-09T18:08:11.890Z,31.98
2023-05-09T18:11:14.556Z,32.27
2023-05-09T18:14:17.178Z,32.42
2023-05-09T18:17:19.877Z,32.65
2023-05-09T18:20:22.280Z,32.77
2023-05-09T18:23:26.337Z,32.88
2023-05-09T18:26:31.098Z,33.16
2023-05-09T18:29:33.481Z,33.38
2023-05-09T18:32:36.962Z,33.56
2023-05-09T18:35:39.622Z,33.74
2023-05-09T18:38:43.637Z,33.76
2023-05-09T18:41:45.706Z,33.76
2023-05-09T18:44:48.205Z,33.75
2023-05-09T18:47:50.260Z,33.79
2023-05-09T18:50:55.200Z,33.85
2023-05-09T18:53:58.384Z,33.97
2023-05-09T18:57:00.556Z,34.14
2023-05-09T19:00:02.637Z,34.31
2023-05-09T19:03:04.956Z,34.43
2023-05-09T19:06:07.746Z,34.49
2023-05-09T19:09:10.155Z,34.59
2023-05-09T19:12:12.197Z,34.79
2023-05-09T19:15:15.931Z,34.96
2023-05-09T19:18:17.892Z,35.03
2023-05-09T19:21:20.058Z,35.20
2023-05-09T19:24:22.448Z,35.49
2023-05-09T19:27:27.476Z,35.69
2023-05-09T19:30:29.552Z,35.78
2023-05-09T19:33:31.640Z,35.82
2023-05-09T19:36:34.086Z,36.17
2023-05-09T19:39:36.264Z,36.30
2023-05-09T19:42:38.736Z,36.58
2023-05-09T19:45:42.141Z,36.61
2023-05-09T19:48:45.693Z,36.75
2023-05-09T19:51:47.964Z,36.77
2023-05-09T19:54:52.463Z,36.90
2023-05-09T19:57:56.092Z,36.93
2023-05-09T20:00:59.122Z,37.12
2023-05-09T20:04:01.395Z,37.36
2023-05-09T20:10:26.653Z,37.48
2023-05-09T20:13:28.957Z,37.45
2023-05-09T20:16:31.236Z,37.59
2023-05-09T20:19:33.577Z,37.76
2023-05-09T20:22:36.201Z,37.85
2023-05-09T20:25:38.457Z,38.06
2023-05-09T20:28:43.997Z,38.05
2023-05-09T20:31:47.573Z,38.35
2023-05-09T20:34:53.160Z,38.62
2023-05-09T20:37:56.099Z,38.84
2023-05-09T20:40:58.078Z,38.84
2023-05-09T20:44:04.156Z,38.94
2023-05-09T20:47:06.609Z,38.99
2023-05-09T20:50:09.319Z,39.10
2023-05-09T20:53:11.492Z,39.07
2023-05-09T20:56:14.048Z,39.28
2023-05-09T20:59:16.613Z,39.32
2023-05-09T21:02:18.784Z,39.40
2023-05-09T21:05:21.093Z,39.45
2023-05-09T21:08:24.364Z,39.66
2023-05-09T21:11:27.003Z,39.75
2023-05-09T21:14:29.151Z,39.86
2023-05-09T21:17:31.664Z,39.86
2023-05-09T21:20:33.903Z,39.93
2023-05-09T21:23:36.271Z,39.86
2023-05-09T21:26:38.382Z,39.88
2023-05-09T21:29:40.624Z,39.90
2023-05-09T21:32:42.953Z,40.04
2023-05-09T21:35:45.795Z,39.97
2023-05-09T21:38:48.066Z,40.14
2023-05-09T21:41:51.066Z,40.16
2023-05-09T21:44:53.177Z,40.40
2023-05-09T21:47:55.624Z,40.45
2023-05-09T21:51:03.387Z,40.60
2023-05-09T21:54:06.541Z,40.73
2023-05-09T21:57:08.742Z,40.79
2023-05-09T22:00:15.313Z,40.88
2023-05-09T22:05:06.293Z,41.24
2023-05-09T22:08:08.496Z,41.39
2023-05-09T22:11:11.482Z,41.53
2023-05-09T22:14:15.178Z,41.69
2023-05-09T22:17:17.455Z,41.87
2023-05-09T22:20:19.812Z,41.95
2023-05-09T22:23:21.891Z,42.05
2023-05-09T22:26:24.091Z,42.35
2023-05-09T22:29:27.823Z,42.49
2023-05-09T22:32:30.090Z,42.58
2023-05-09T22:35:32.255Z,42.69
2023-05-09T22:38:34.595Z,42.88
2023-05-09T22:41:36.875Z,43.04
2023-05-09T22:44:39.639Z,43.09
2023-05-09T22:47:41.720Z,43.23
2023-05-09T22:50:43.837Z,43.40
2023-05-09T22:53:45.952Z,43.40
2023-05-09T22:56:48.155Z,43.58
2023-05-09T22:59:50.451Z,43.67
2023-05-09T23:02:52.673Z,43.93
2023-05-09T23:05:55.170Z,43.86
2023-05-09T23:08:57.382Z,44.06
2023-05-09T23:12:00.131Z,44.13
2023-05-09T23:15:02.289Z,44.29
2023-05-09T23:18:04.801Z,44.41
2023-05-09T23:21:07.051Z,44.39
2023-05-09T23:24:09.541Z,44.48
2023-05-09T23:27:12.096Z,44.58
2023-05-09T23:30:14.580Z,44.64
2023-05-09T23:33:17.106Z,44.71
2023-05-09T23:36:19.343Z,44.72
2023-05-09T23:39:21.866Z,44.84
2023-05-09T23:42:24.258Z,44.92
2023-05-09T23:45:26.493Z,45.10
2023-05-09T23:48:29.022Z,45.04
2023-05-09T23:51:31.112Z,45.13
2023-05-09T23:54:33.169Z,45.26
2023-05-09T23:57:35.334Z,45.20
